Time,TemperatureF,DewpointF,PressureIn,WindDirection,WindDirectionDegrees,WindSpeedMPH,WindSpeedGustMPH,Humidity,HourlyPrecipIn,Conditions,Clouds,dailyrainin,SoftwareType,DateUTC
2016-02-13 00:00:00,11.1,2.6,29.81,SSE,167,0.0,18.0,68,0.00,,,0.00,Wunderground v.1.15,2016-02-13 05:00:00,
2016-02-13 00:10:00,10.7,2.2,29.80,SSE,167,0.0,18.0,68,0.00,,,0.00,Wunderground v.1.15,2016-02-13 05:10:00,
2016-02-13 00:15:00,10.5,2.0,29.80,SSE,167,0.0,18.0,68,0.00,,,0.00,Wunderground v.1.15,2016-02-13 05:15:00,
2016-02-13 00:20:00,10.3,2.4,29.80,SSE,166,0.0,18.0,70,0.00,,,0.00,Wunderground v.1.15,2016-02-13 05:20:00,
2016-02-13 00:25:00,10.3,2.4,29.79,SE,138,0.0,18.0,70,0.00,,,0.00,Wunderground v.1.15,2016-02-13 05:25:00,
2016-02-13 00:30:00,10.2,2.4,29.79,SE,139,0.0,18.0,70,0.00,,,0.00,Wunderground v.1.15,2016-02-13 05:30:00,
2016-02-13 00:40:00,10.5,2.6,29.79,SSE,147,0.0,18.0,70,0.00,,,0.00,Wunderground v.1.15,2016-02-13 05:40:00,
2016-02-13 00:50:00,10.9,2.7,29.79,SSE,148,0.0,18.0,69,0.00,,,0.00,Wunderground v.1.15,2016-02-13 05:50:00,
2016-02-13 00:55:00,10.9,2.7,29.78,SSE,168,0.0,18.0,69,0.00,,,0.00,Wunderground v.1.15,2016-02-13 05:55:00,
2016-02-13 01:00:00,11.0,2.8,29.78,South,171,0.0,18.0,69,0.00,,,0.00,Wunderground v.1.15,2016-02-13 06:00:00,
2016-02-13 01:10:00,10.9,3.0,29.78,SSE,165,0.0,18.0,70,0.00,,,0.00,Wunderground v.1.15,2016-02-13 06:10:00,
2016-02-13 01:15:00,10.8,2.6,29.77,South,172,0.0,18.0,69,0.00,,,0.00,Wunderground v.1.15,2016-02-13 06:15:00,
2016-02-13 01:25:00,10.9,2.7,29.77,SSE,164,1.0,18.0,69,0.00,,,0.00,Wunderground v.1.15,2016-02-13 06:25:00,
2016-02-13 01:30:00,10.9,2.7,29.77,SSE,156,1.0,1.0,69,0.00,,,0.00,Wunderground v.1.15,2016-02-13 06:30:00,
2016-02-13 01:35:00,10.9,2.4,29.77,SSE,156,0.0,18.0,68,0.00,,,0.00,Wunderground v.1.15,2016-02-13 06:35:00,
2016-02-13 01:40:00,10.8,2.3,29.76,SSE,156,0.0,18.0,68,0.00,,,0.00,Wunderground v.1.15,2016-02-13 06:40:00,
2016-02-13 01:50:00,10.7,2.5,29.76,SSE,158,0.0,18.0,69,0.00,,,0.00,Wunderground v.1.15,2016-02-13 06:50:00,
2016-02-13 01:55:00,10.6,2.7,29.76,SSE,158,0.0,18.0,70,0.00,,,0.00,Wunderground v.1.15,2016-02-13 06:55:00,
2016-02-13 02:00:00,10.4,2.9,29.76,SSE,158,0.0,18.0,71,0.00,,,0.00,Wunderground v.1.15,2016-02-13 07:00:00,
2016-02-13 02:05:00,10.3,2.8,29.76,SE,141,0.0,18.0,71,0.00,,,0.00,Wunderground v.1.15,2016-02-13 07:05:00,
2016-02-13 02:10:00,10.3,2.8,29.75,SE,146,0.0,18.0,71,0.00,,,0.00,Wunderground v.1.15,2016-02-13 07:10:00,
2016-02-13 02:20:00,10.4,2.9,29.75,SE,146,0.0,18.0,71,0.00,,,0.00,Wunderground v.1.15,2016-02-13 07:20:00,
2016-02-13 02:25:00,10.3,2.8,29.75,SE,146,0.0,18.0,71,0.00,,,0.00,Wunderground v.1.15,2016-02-13 07:25:00,
2016-02-13 02:30:00,10.3,2.8,29.75,SE,146,0.0,18.0,71,0.00,,,0.00,Wunderground v.1.15,2016-02-13 07:30:00,
2016-02-13 02:35:00,10.3,3.1,29.75,SE,146,0.0,18.0,72,0.00,,,0.00,Wunderground v.1.15,2016-02-13 07:35:00,
2016-02-13 02:40:00,10.1,3.2,29.74,SE,146,0.0,18.0,73,0.00,,,0.00,Wunderground v.1.15,2016-02-13 07:40:00,
2016-02-13 02:45:00,10.0,2.8,29.74,East,97,0.0,18.0,72,0.00,,,0.00,Wunderground v.1.15,2016-02-13 07:45:00,
2016-02-13 02:55:00,10.2,3.0,29.74,SE,137,0.0,18.0,72,0.00,,,0.00,Wunderground v.1.15,2016-02-13 07:55:00,
2016-02-13 03:00:00,10.2,3.0,29.74,SE,137,0.0,18.0,72,0.00,,,0.00,Wunderground v.1.15,2016-02-13 08:00:00,
2016-02-13 03:05:00,10.1,2.9,29.74,SE,137,0.0,18.0,72,0.00,,,0.00,Wunderground v.1.15,2016-02-13 08:05:00,
2016-02-13 03:10:00,10.1,2.9,29.73,SE,137,0.0,18.0,72,0.00,,,0.00,Wunderground v.1.15,2016-02-13 08:10:00,
2016-02-13 03:15:00,10.1,2.6,29.73,SE,137,0.0,18.0,71,0.00,,,0.00,Wunderground v.1.15,2016-02-13 08:15:00,
2016-02-13 03:25:00,9.8,2.6,29.73,SSE,158,0.0,18.0,72,0.00,,,0.00,Wunderground v.1.15,2016-02-13 08:25:00,
2016-02-13 03:30:00,9.9,2.7,29.73,SSE,150,0.0,18.0,72,0.00,,,0.00,Wunderground v.1.15,2016-02-13 08:30:00,
2016-02-13 03:35:00,9.8,2.6,29.73,SSE,150,0.0,18.0,72,0.00,,,0.00,Wunderground v.1.15,2016-02-13 08:35:00,
2016-02-13 03:40:00,9.7,2.5,29.73,SSE,150,0.0,18.0,72,0.00,,,0.00,Wunderground v.1.15,2016-02-13 08:40:00,
2016-02-13 03:50:00,9.6,2.7,29.73,SSE,150,0.0,18.0,73,0.00,,,0.00,Wunderground v.1.15,2016-02-13 08:50:00,
2016-02-13 03:55:00,9.6,2.7,29.73,SE,132,0.0,18.0,73,0.00,,,0.00,Wunderground v.1.15,2016-02-13 08:55:00,
2016-02-13 04:00:00,9.6,2.7,29.73,SE,132,0.0,18.0,73,0.00,,,0.00,Wunderground v.1.15,2016-02-13 09:00:00,
2016-02-13 04:10:00,9.6,3.3,29.73,SE,132,0.0,18.0,75,0.00,,,0.00,Wunderground v.1.15,2016-02-13 09:10:00,
2016-02-13 04:15:00,9.4,2.8,29.73,SE,132,0.0,18.0,74,0.00,,,0.00,Wunderground v.1.15,2016-02-13 09:15:00,
2016-02-13 04:20:00,9.3,2.7,29.73,SE,132,0.0,18.0,74,0.00,,,0.00,Wunderground v.1.15,2016-02-13 09:20:00,
2016-02-13 04:25:00,9.3,3.0,29.73,SE,132,0.0,18.0,75,0.00,,,0.00,Wunderground v.1.15,2016-02-13 09:25:00,
2016-02-13 04:40:00,8.7,2.7,29.73,East,89,0.0,18.0,76,0.00,,,0.00,Wunderground v.1.15,2016-02-13 09:40:00,
2016-02-13 04:45:00,8.6,2.3,29.73,East,89,0.0,18.0,75,0.00,,,0.00,Wunderground v.1.15,2016-02-13 09:45:00,
2016-02-13 04:50:00,8.6,2.6,29.73,East,90,0.0,18.0,76,0.00,,,0.00,Wunderground v.1.15,2016-02-13 09:50:00,
2016-02-13 04:55:00,8.6,2.6,29.73,East,90,0.0,18.0,76,0.00,,,0.00,Wunderground v.1.15,2016-02-13 09:55:00,
2016-02-13 05:05:00,8.7,2.7,29.73,East,90,0.0,18.0,76,0.00,,,0.00,Wunderground v.1.15,2016-02-13 10:05:00,
2016-02-13 05:10:00,8.7,3.0,29.74,East,90,0.0,18.0,77,0.00,,,0.00,Wunderground v.1.15,2016-02-13 10:10:00,
2016-02-13 05:15:00,8.7,3.0,29.74,East,90,0.0,18.0,77,0.00,,,0.00,Wunderground v.1.15,2016-02-13 10:15:00,
2016-02-13 05:25:00,8.9,3.7,29.74,WNW,283,0.0,18.0,79,0.00,,,0.00,Wunderground v.1.15,2016-02-13 10:25:00,
2016-02-13 05:30:00,9.1,3.9,29.74,NE,50,0.0,18.0,79,0.00,,,0.00,Wunderground v.1.15,2016-02-13 10:30:00,
2016-02-13 05:35:00,9.2,4.0,29.74,NE,50,0.0,18.0,79,0.00,,,0.00,Wunderground v.1.15,2016-02-13 10:35:00,
2016-02-13 05:45:00,9.1,3.9,29.74,East,84,0.0,18.0,79,0.00,,,0.00,Wunderground v.1.15,2016-02-13 10:45:00,
2016-02-13 05:50:00,9.1,3.6,29.74,East,84,0.0,18.0,78,0.00,,,0.00,Wunderground v.1.15,2016-02-13 10:50:00,
2016-02-13 05:55:00,9.1,3.6,29.74,East,84,0.0,18.0,78,0.00,,,0.00,Wunderground v.1.15,2016-02-13 10:55:00,
2016-02-13 06:00:00,9.1,3.9,29.74,East,84,0.0,18.0,79,0.00,,,0.00,Wunderground v.1.15,2016-02-13 11:00:00,
2016-02-13 06:05:00,9.2,4.3,29.74,East,84,0.0,18.0,80,0.00,,,0.00,Wunderground v.1.15,2016-02-13 11:05:00,
2016-02-13 06:15:00,9.9,5.5,29.75,WNW,282,0.0,18.0,82,0.00,,,0.00,Wunderground v.1.15,2016-02-13 11:15:00,
2016-02-13 06:20:00,10.1,5.2,29.75,WNW,282,0.0,18.0,80,0.00,,,0.00,Wunderground v.1.15,2016-02-13 11:20:00,
2016-02-13 06:25:00,10.1,5.2,29.75,West,277,0.0,18.0,80,0.00,,,0.00,Wunderground v.1.15,2016-02-13 11:25:00,
2016-02-13 06:30:00,10.2,5.0,29.75,West,261,0.0,18.0,79,0.00,,,0.00,Wunderground v.1.15,2016-02-13 11:30:00,
2016-02-13 06:35:00,10.1,4.9,29.75,West,262,0.0,18.0,79,0.00,,,0.00,Wunderground v.1.15,2016-02-13 11:35:00,
2016-02-13 06:45:00,9.6,4.1,29.75,West,260,0.0,18.0,78,0.00,,,0.00,Wunderground v.1.15,2016-02-13 11:45:00,
2016-02-13 06:55:00,9.0,4.1,29.76,SW,228,1.0,18.0,80,0.00,,,0.00,Wunderground v.1.15,2016-02-13 11:55:00,
2016-02-13 07:00:00,9.0,4.1,29.76,WSW,249,1.0,18.0,80,0.00,,,0.00,Wunderground v.1.15,2016-02-13 12:00:00,
2016-02-13 07:05:00,9.1,4.7,29.75,WSW,242,2.0,18.0,82,0.00,,,0.00,Wunderground v.1.15,2016-02-13 12:05:00,
2016-02-13 07:10:00,9.5,5.4,29.75,WNW,289,2.0,2.0,83,0.00,,,0.00,Wunderground v.1.15,2016-02-13 12:10:00,
2016-02-13 07:20:00,9.6,5.2,29.76,WSW,258,1.0,1.0,82,0.00,,,0.00,Wunderground v.1.15,2016-02-13 12:20:00,
2016-02-13 07:25:00,9.6,5.2,29.76,WNW,302,1.0,18.0,82,0.00,,,0.00,Wunderground v.1.15,2016-02-13 12:25:00,
2016-02-13 07:30:00,9.5,4.8,29.77,WNW,285,1.0,1.0,81,0.00,,,0.00,Wunderground v.1.15,2016-02-13 12:30:00,
2016-02-13 07:35:00,9.4,4.7,29.77,West,264,1.0,18.0,81,0.00,,,0.00,Wunderground v.1.15,2016-02-13 12:35:00,
2016-02-13 07:40:00,9.0,4.4,29.77,West,275,1.0,18.0,81,0.00,,,0.00,Wunderground v.1.15,2016-02-13 12:40:00,
2016-02-13 07:45:00,9.0,4.4,29.77,West,278,2.0,18.0,81,0.00,,,0.00,Wunderground v.1.15,2016-02-13 12:45:00,
2016-02-13 07:55:00,8.6,3.7,29.78,WSW,237,1.0,18.0,80,0.00,,,0.00,Wunderground v.1.15,2016-02-13 12:55:00,
2016-02-13 08:00:00,8.0,3.1,29.79,West,272,1.0,18.0,80,0.00,,,0.00,Wunderground v.1.15,2016-02-13 13:00:00,
2016-02-13 08:05:00,8.1,3.2,29.78,WNW,303,3.0,18.0,80,0.00,,,0.00,Wunderground v.1.15,2016-02-13 13:05:00,
2016-02-13 08:10:00,8.8,3.6,29.78,WNW,282,4.0,4.0,79,0.00,,,0.00,Wunderground v.1.15,2016-02-13 13:10:00,
2016-02-13 08:15:00,9.3,3.8,29.78,West,262,4.0,5.0,78,0.00,,,0.00,Wunderground v.1.15,2016-02-13 13:15:00,
2016-02-13 08:25:00,10.4,4.3,29.78,West,270,4.0,18.0,76,0.00,,,0.00,Wunderground v.1.15,2016-02-13 13:25:00,
2016-02-13 08:30:00,10.4,4.9,29.79,NNW,337,5.0,5.0,78,0.00,,,0.00,Wunderground v.1.15,2016-02-13 13:30:00,
2016-02-13 08:35:00,10.1,5.4,29.79,West,270,5.0,18.0,81,0.00,,,0.00,Wunderground v.1.15,2016-02-13 13:35:00,
2016-02-13 08:40:00,9.4,5.0,29.79,West,272,5.0,18.0,82,0.00,,,0.00,Wunderground v.1.15,2016-02-13 13:40:00,
2016-02-13 08:50:00,9.2,4.8,29.80,WSW,247,7.0,18.0,82,0.00,,,0.00,Wunderground v.1.15,2016-02-13 13:50:00,
2016-02-13 09:00:00,9.9,6.0,29.79,West,262,7.0,7.0,84,0.00,,,0.00,Wunderground v.1.15,2016-02-13 14:00:00,
2016-02-13 09:05:00,10.2,5.0,29.80,West,260,7.0,11.0,79,0.00,,,0.00,Wunderground v.1.15,2016-02-13 14:05:00,
2016-02-13 09:10:00,10.5,3.6,29.80,West,271,8.0,8.0,73,0.00,,,0.00,Wunderground v.1.15,2016-02-13 14:10:00,
2016-02-13 09:15:00,10.8,2.3,29.80,WNW,289,9.0,9.0,68,0.00,,,0.00,Wunderground v.1.15,2016-02-13 14:15:00,
2016-02-13 09:20:00,11.1,1.9,29.80,NW,326,8.0,18.0,66,0.00,,,0.00,Wunderground v.1.15,2016-02-13 14:20:00,
2016-02-13 09:25:00,10.8,0.0,29.80,WNW,289,9.0,18.0,61,0.00,,,0.00,Wunderground v.1.15,2016-02-13 14:25:00,
2016-02-13 09:35:00,10.6,-0.9,29.80,SW,234,8.0,18.0,59,0.00,,,0.00,Wunderground v.1.15,2016-02-13 14:35:00,
2016-02-13 09:40:00,10.6,-1.7,29.80,North,4,8.0,18.0,57,0.00,,,0.00,Wunderground v.1.15,2016-02-13 14:40:00,
2016-02-13 09:45:00,10.5,-3.3,29.80,WSW,237,8.0,18.0,53,0.00,,,0.00,Wunderground v.1.15,2016-02-13 14:45:00,
2016-02-13 09:50:00,10.5,-3.7,29.80,WNW,284,9.0,18.0,52,0.00,,,0.00,Wunderground v.1.15,2016-02-13 14:50:00,
2016-02-13 09:55:00,10.5,-4.5,29.81,WNW,300,9.0,18.0,50,0.00,,,0.00,Wunderground v.1.15,2016-02-13 14:55:00,
2016-02-13 10:05:00,10.7,-5.2,29.80,WSW,243,12.0,26.0,48,0.00,,,0.00,Wunderground v.1.15,2016-02-13 15:05:00,
2016-02-13 10:15:00,10.1,-4.9,29.80,SSW,201,11.0,18.0,50,0.00,,,0.00,Wunderground v.1.15,2016-02-13 15:15:00,
2016-02-13 10:20:00,10.0,-4.2,29.80,WSW,245,8.0,19.0,52,0.00,,,0.00,Wunderground v.1.15,2016-02-13 15:20:00,